• Join FlightAware (Why Join?)
  • Login
  • US Flag 
06:49AM EST


 

Airport Tracker/Info


-or-


 

Live Flight TrackerFlight Track Log ✈ UAL1208 ✈ 28-Apr-2013 ✈ KSFO - KIAD

Flight Track Log - Related Links

Times and Time Zones

All times are in EDT time to prevent confusion due to time zone crossing. See the UAL1208 flight status page for this flight to view local times or setup timezone preferences in your user account.

Time Position Orientation Groundspeed Altitude Reporting Facility
EDT Latitude Longitude Course Direction KTS MPH feet Rate Location/Type
02:26AM 37.6333 -122.3667 90° East 179 206 900  Level Northern Cal TRACON
02:26AM 37.6567 -122.3469 34° Northeast 193 222 1,400 1,800 Climbing Oakland Center
02:27AM 37.7153 -122.3292 13° North 235 270 3,500 2,160 Climbing Oakland Center
02:28AM 37.7806 -122.3658 336° Northwest 249 287 5,800 2,280 Climbing Oakland Center
02:29AM 37.9603 -122.1433 84° East  Level FlightAware Approximate
02:29AM 37.8464 -122.3461 13° North 280 322 8,100  Level Oakland Center
02:30AM 37.9675 -121.9793 76° East  Level FlightAware Approximate
02:30AM 37.8647 -122.2469 77° East 289 333 10,400  Level Oakland Center
02:31AM 37.9833 -121.8173 90° East  Level FlightAware Approximate
02:31AM 37.8858 -122.1281 77° East 343 395 11,300  Level Oakland Center
02:32AM 37.9078 -121.9961 78° East 380 437 13,400 1,980 Climbing Oakland Center
02:33AM 37.9319 -121.8597 77° East 397 457 15,400 1,980 Climbing Oakland Center
02:34AM 37.9550 -121.7189 78° East 407 468 17,400 1,860 Climbing Oakland Center
02:35AM 37.9797 -121.5731 78° East 421 484 19,200 1,740 Climbing Oakland Center
02:36AM 38.0056 -121.4183 78° East 438 504 21,000 1,800 Climbing Oakland Center
02:37AM 38.0317 -121.2661 78° East 445 512 22,900 1,620 Climbing Oakland Center
02:38AM 38.0561 -121.1122 79° East 449 517 24,300 1,260 Climbing Oakland Center
02:39AM 38.0847 -120.9547 77° East 457 526 25,500 1,200 Climbing Oakland Center
02:40AM 38.1244 -120.7992 72° East 464 534 26,700 1,200 Climbing Oakland Center
02:41AM 38.1628 -120.6392 73° East 472 543 28,000 1,380 Climbing Oakland Center
02:42AM 38.2083 -120.4478 73° East 473 544 29,600 1,500 Climbing Oakland Center
02:43AM 38.2461 -120.2900 73° East 471 542 31,100 1,380 Climbing Oakland Center
02:44AM 38.2828 -120.1358 73° East 459 528 32,400 1,140 Climbing Oakland Center
02:45AM 38.3172 -119.9811 74° East 456 525 33,400 840 Climbing Oakland Center
02:46AM 38.3528 -119.8272 74° East 455 524 34,100 780 Climbing Oakland Center
02:47AM 38.3906 -119.6719 73° East 458 527 35,000 420 Climbing Oakland Center
02:48AM 38.4211 -119.5339 74° East 460 529 35,000  Level Oakland Center
02:49AM 38.4564 -119.3792 74° East 457 526 35,000  Level Oakland Center
02:50AM 38.4917 -119.2228 74° East 459 528 35,000  Level Oakland Center
02:51AM 38.5231 -119.0642 76° East 463 533 35,000  Level Oakland Center
02:52AM 38.5611 -118.8731 76° East 464 534 35,000  Level Oakland Center
02:53AM 38.5931 -118.7156 75° East 462 532 35,000  Level Oakland Center
02:54AM 38.6250 -118.5575 75° East 462 532 35,000  Level Oakland Center
02:55AM 38.6558 -118.3981 76° East 464 534 35,000  Level Oakland Center
02:56AM 38.6875 -118.2375 76° East 466 536 35,000  Level Oakland Center
02:57AM 38.7181 -118.0786 76° East 463 533 35,000  Level Oakland Center
02:58AM 38.7486 -117.9181 76° East 465 535 35,000  Level Oakland Center
02:59AM 38.7789 -117.7608 76° East 459 528 35,000  Level Oakland Center
03:00AM 38.8050 -117.6186 77° East 457 526 35,000  Level Oakland Center
03:01AM 38.8361 -117.4581 76° East 460 529 35,000  Level Oakland Center
03:02AM 38.8592 -117.3286 77° East 462 532 35,000  Level Salt Lake Center
03:03AM 38.8889 -117.1672 77° East 462 532 35,000  Level Salt Lake Center
03:03AM 38.8975 -117.1236 76° East 463 533 35,000  Level Oakland Center
03:04AM 38.9244 -116.9750 77° East 461 531 35,000  Level Oakland Center
03:05AM 38.9472 -116.8450 77° East 461 531 35,000  Level Salt Lake Center
03:06AM 38.9767 -116.6861 77° East 457 526 35,000  Level Salt Lake Center
03:07AM 39.0047 -116.5247 77° East 461 531 35,000  Level Salt Lake Center
03:08AM 39.0333 -116.3661 77° East 455 524 35,000  Level Salt Lake Center
03:09AM 39.0619 -116.2050 77° East 461 531 35,000  Level Salt Lake Center
03:10AM 39.0894 -116.0422 78° East 464 534 35,000  Level Salt Lake Center
03:11AM 39.1183 -115.8789 77° East 467 537 35,000  Level Salt Lake Center
03:12AM 39.1467 -115.7147 77° East 464 534 35,000  Level Salt Lake Center
03:13AM 39.1744 -115.5578 77° East 467 537 35,000  Level Salt Lake Center
03:14AM 39.1997 -115.4042 78° East 464 534 35,000  Level Salt Lake Center
03:15AM 39.2308 -115.2200 78° East 467 537 35,000  Level Salt Lake Center
03:16AM 39.2564 -115.0650 78° East 465 535 35,000  Level Salt Lake Center
03:17AM 39.2806 -114.9089 79° East 467 537 35,000  Level Salt Lake Center
03:18AM 39.3103 -114.7269 78° East 465 535 35,000  Level Salt Lake Center
03:19AM 39.3347 -114.5667 79° East 471 542 35,000  Level Salt Lake Center
03:20AM 39.3611 -114.4097 78° East 470 541 35,000  Level Salt Lake Center
03:21AM 39.3894 -114.2417 78° East 469 540 35,000  Level Salt Lake Center
03:22AM 39.4147 -114.0800 79° East 462 532 35,000  Level Salt Lake Center
03:23AM 39.4400 -113.9181 79° East 460 529 35,000  Level Salt Lake Center
03:24AM 39.4650 -113.7550 79° East 462 532 35,000  Level Salt Lake Center
03:25AM 39.4892 -113.5922 79° East 462 532 35,000  Level Salt Lake Center
03:26AM 39.5142 -113.4286 79° East 464 534 35,000  Level Salt Lake Center
03:27AM 39.5381 -113.2631 79° East 467 537 35,000 -60 Level Salt Lake Center
03:28AM 39.5622 -113.0989 79° East 465 535 34,900 -600 Descending Salt Lake Center
03:29AM 39.5867 -112.9333 79° East 467 537 33,900 -960 Descending Salt Lake Center
03:30AM 39.6103 -112.7689 79° East 466 536 33,000 -480 Descending Salt Lake Center
03:31AM 39.6353 -112.5983 79° East 469 540 33,000  Level Salt Lake Center
03:32AM 39.6583 -112.4322 80° East 470 541 33,000  Level Salt Lake Center
03:33AM 39.6814 -112.2661 80° East 471 542 33,000  Level Salt Lake Center
03:34AM 39.7044 -112.1006 80° East 470 541 33,000  Level Salt Lake Center
03:35AM 39.7283 -111.9361 79° East 469 540 33,000  Level Salt Lake Center
03:36AM 39.7503 -111.7697 80° East 469 540 33,000  Level Salt Lake Center
03:37AM 39.7725 -111.6014 80° East 473 544 33,000  Level Salt Lake Center
03:38AM 39.7947 -111.4250 81° East 473 544 33,000  Level Salt Lake Center
03:39AM 39.8203 -111.2372 80° East 474 545 33,000  Level Salt Lake Center
03:40AM 39.8403 -111.0761 81° East 472 543 33,000  Level Salt Lake Center
03:41AM 39.8600 -110.9158 81° East 471 542 33,000  Level Salt Lake Center
03:42AM 39.8808 -110.7542 80° East 473 544 33,000  Level Salt Lake Center
03:43AM 39.9028 -110.5650 81° East 473 544 33,000  Level Salt Lake Center
03:44AM 39.9236 -110.4028 80° East 475 547 33,000  Level Salt Lake Center
03:45AM 39.9433 -110.2403 81° East 475 547 33,000  Level Salt Lake Center
03:46AM 39.9664 -110.0514 81° East 474 545 33,000  Level Salt Lake Center
03:47AM 39.9850 -109.8894 81° East 472 543 33,000  Level Salt Lake Center
03:48AM 40.0042 -109.7267 81° East 474 545 33,000  Level Salt Lake Center
03:49AM 40.0219 -109.5617 82° East 474 545 33,000  Level Denver Center
03:50AM 40.0450 -109.3700 81° East 478 550 33,000  Level Denver Center
03:51AM 40.0625 -109.2067 82° East 475 547 33,000  Level Denver Center
03:52AM 40.0811 -109.0450 81° East 473 544 33,000  Level Salt Lake Center
03:53AM 40.0992 -108.8833 82° East 468 539 33,100 420 Climbing Salt Lake Center
03:54AM 40.1197 -108.6903 82° East 476 548 33,900 900 Climbing Salt Lake Center
03:55AM 40.1367 -108.5267 82° East 474 545 34,900 600 Climbing Salt Lake Center
03:56AM 40.1542 -108.3600 82° East 478 550 35,200 420 Climbing Salt Lake Center
03:57AM 40.1711 -108.1897 83° East 489 563 35,800 660 Climbing Salt Lake Center
03:58AM 40.1914 -107.9903 82° East 495 570 36,600 540 Climbing Salt Lake Center
04:00AM 40.2083 -107.8183 83° East 494 568 37,000 180 Climbing Denver Center
04:01AM 40.2247 -107.6489 83° East 493 567 37,000  Level Denver Center
04:02AM 40.2458 -107.4483 82° East 495 570 37,000  Level Denver Center
04:03AM 40.2614 -107.2750 83° East 498 573 37,000  Level Denver Center
04:04AM 40.2769 -107.1014 83° East 500 575 37,000  Level Denver Center
04:05AM 40.2953 -106.9025 83° East 495 570 37,000  Level Denver Center
04:06AM 40.3103 -106.7358 83° East 492 566 37,000  Level Denver Center
04:07AM 40.3267 -106.5594 83° East 488 562 37,000  Level Denver Center
04:08AM 40.3425 -106.3689 84° East 484 557 37,000  Level Denver Center
04:09AM 40.3572 -106.1992 83° East 490 564 37,000  Level Denver Center
04:10AM 40.3711 -106.0294 84° East 490 564 37,000  Level Denver Center
04:11AM 40.3858 -105.8492 84° East 491 565 37,000  Level Denver Center
04:12AM 40.3994 -105.6706 84° East 490 564 37,000  Level Denver Center
04:13AM 40.4142 -105.4914 84° East 489 563 37,000  Level Denver Center
04:14AM 40.4272 -105.3122 84° East 487 560 37,000  Level Denver Center
04:15AM 40.4403 -105.1350 84° East 482 555 37,000  Level Denver Center
04:16AM 40.4547 -104.9519 84° East 495 570 37,000  Level Denver Center
04:17AM 40.4681 -104.7744 84° East 486 559 37,000  Level Denver Center
04:18AM 40.4808 -104.5903 85° East 497 572 37,000  Level Denver Center
04:19AM 40.4933 -104.4100 85° East 492 566 37,000  Level Denver Center
04:20AM 40.5050 -104.2289 85° East 491 565 37,000  Level Denver Center
04:21AM 40.5172 -104.0506 85° East 486 559 37,000  Level Denver Center
04:22AM 40.5281 -103.8761 85° East 477 549 37,000  Level Denver Center
04:23AM 40.5400 -103.6967 85° East 487 560 37,000  Level Denver Center
04:24AM 40.5506 -103.5169 86° East 488 562 37,000  Level Denver Center
04:25AM 40.5614 -103.3372 85° East 489 563 37,000  Level Denver Center
04:26AM 40.5736 -103.1269 86° East 490 564 37,000  Level Denver Center
04:27AM 40.5847 -102.9464 85° East 490 564 37,000  Level Denver Center
04:28AM 40.5936 -102.7644 86° East 494 568 37,000  Level Denver Center
04:29AM 40.6031 -102.5842 86° East 493 567 37,000  Level Denver Center
04:30AM 40.6131 -102.4106 86° East 497 572 37,000  Level Denver Center
04:31AM 40.6203 -102.2369 87° East 498 573 37,000  Level Denver Center
04:32AM 40.6311 -102.0331 86° East 499 574 37,000  Level Denver Center
04:33AM 40.6394 -101.8567 86° East 503 579 37,000  Level Denver Center
04:34AM 40.6478 -101.6806 86° East 504 580 37,000  Level Denver Center
04:35AM 40.6556 -101.5039 87° East 506 582 37,000  Level Denver Center
04:36AM 40.6642 -101.2983 87° East 505 581 37,000  Level Denver Center
04:37AM 40.6708 -101.1233 87° East 503 579 37,000  Level Denver Center
04:38AM 40.6775 -100.9486 87° East 502 578 37,000  Level Denver Center
04:39AM 40.6847 -100.7467 87° East 503 579 37,000  Level Denver Center
04:40AM 40.6917 -100.5747 87° East 502 578 37,000  Level Denver Center
04:41AM 40.6989 -100.3747 87° East 496 571 37,000  Level Denver Center
04:42AM 40.7047 -100.2022 87° East 495 570 37,000  Level Denver Center
04:43AM 40.7097 -100.0283 88° East 497 572 37,000  Level Denver Center
04:44AM 40.7167 -99.8353 87° East 492 566 37,000  Level Denver Center
04:45AM 40.7211 -99.6539 88° East 494 568 37,000  Level Denver Center
04:46AM 40.7256 -99.4739 88° East 494 568 37,000  Level Denver Center
04:47AM 40.7303 -99.2922 88° East 497 572 37,000  Level Denver Center
04:48AM 40.7342 -99.1128 88° East 496 571 37,000  Level Denver Center
04:49AM 40.7375 -98.9703 88° East 495 570 37,000  Level Minneapolis Center
04:50AM 40.7414 -98.7908 88° East 495 570 37,000  Level Minneapolis Center
04:51AM 40.7450 -98.6108 88° East 496 571 37,000  Level Minneapolis Center
04:52AM 40.7475 -98.4314 89° East 496 571 37,000  Level Minneapolis Center
04:53AM 40.7514 -98.2178 89° East 491 565 37,000  Level Minneapolis Center
04:54AM 40.7525 -98.0383 89° East 492 566 37,000  Level Minneapolis Center
04:55AM 40.7556 -97.8578 89° East 493 567 37,000  Level Minneapolis Center
04:56AM 40.7572 -97.6753 89° East 497 572 37,000  Level Minneapolis Center
04:57AM 40.7594 -97.4925 89° East 499 574 37,000  Level Minneapolis Center
04:58AM 40.7608 -97.3078 89° East 500 575 37,000  Level Minneapolis Center
04:59AM 40.7619 -97.1269 89° East 496 571 37,000  Level Minneapolis Center
05:00AM 40.7636 -96.9467 89° East 494 568 37,000  Level Minneapolis Center
05:01AM 40.7636 -96.7658 90° East 495 570 37,000  Level Minneapolis Center
05:02AM 40.7642 -96.5850 90° East 495 570 37,000  Level Minneapolis Center
05:03AM 40.7639 -96.4033 90° East 497 572 37,000  Level Minneapolis Center
05:04AM 40.7633 -96.2233 90° East 496 571 37,000  Level Minneapolis Center
05:05AM 40.7633 -96.0425 90° East 497 572 37,000  Level Minneapolis Center
05:06AM 40.7617 -95.8633 91° East 495 570 37,000  Level Minneapolis Center
05:07AM 40.7608 -95.6853 90° East 491 565 37,000  Level Minneapolis Center
05:08AM 40.7594 -95.5056 91° East 492 566 37,000  Level Minneapolis Center
05:09AM 40.7583 -95.3281 90° East 490 564 37,000  Level Minneapolis Center
05:10AM 40.7561 -95.1506 91° East 487 560 37,000  Level Minneapolis Center
05:11AM 40.7547 -94.9728 91° East 486 559 37,000  Level Minneapolis Center
05:12AM 40.7525 -94.7944 91° East 488 562 37,000  Level Minneapolis Center
05:13AM 40.7489 -94.6153 91° East 489 563 37,000  Level Minneapolis Center
05:14AM 40.7450 -94.4297 92° East 492 566 37,000  Level Minneapolis Center
05:15AM 40.7422 -94.2503 91° East 492 566 37,000  Level Minneapolis Center
05:16AM 40.7369 -94.0706 92° East 494 568 37,000  Level Minneapolis Center
05:17AM 40.7333 -93.8906 91° East 494 568 37,000  Level Minneapolis Center
05:18AM 40.7289 -93.7122 92° East 492 566 37,000  Level Minneapolis Center
05:20AM 40.7225 -93.4256 92° East 491 565 37,000  Level Minneapolis Center
05:21AM 40.7175 -93.2494 92° East 489 563 37,000  Level Minneapolis Center
05:22AM 40.7136 -93.0722 92° East 486 559 37,000  Level Minneapolis Center
05:23AM 40.7072 -92.8928 93° East 488 562 37,000  Level Minneapolis Center
05:23AM 40.7033 -92.7472 92° East 493 567 37,000  Level Chicago Center
05:24AM 40.6975 -92.5669 92° East 491 565 37,000  Level Chicago Center
05:25AM 40.6911 -92.3858 93° East 493 567 37,000  Level Chicago Center
05:26AM 40.6847 -92.2053 93° East 495 570 37,000  Level Chicago Center
05:27AM 40.6775 -92.0247 93° East 495 570 37,000  Level Chicago Center
05:28AM 40.6714 -91.8436 92° East 497 572 37,000  Level Chicago Center
05:29AM 40.6633 -91.6625 93° East 498 573 37,000  Level Chicago Center
05:30AM 40.6578 -91.5550 94° East 496 571 37,000  Level Kansas City Center
05:30AM 40.6558 -91.4822 92° East 496 571 37,000  Level Chicago Center
05:31AM 40.6469 -91.2928 93° East 498 573 37,000  Level Chicago Center
05:32AM 40.6392 -91.1125 93° East 496 571 37,000  Level Chicago Center
05:34AM 40.6306 -90.9294 93° East 500 575 37,000  Level Chicago Center
05:35AM 40.6214 -90.7503 94° East 494 568 37,000  Level Chicago Center
05:36AM 40.6119 -90.5714 94° East 491 565 37,000  Level Chicago Center
05:37AM 40.6028 -90.3933 94° East 490 564 37,000  Level Chicago Center
05:38AM 40.5933 -90.2267 94° East 489 563 37,000  Level Chicago Center
05:39AM 40.5839 -90.0500 94° East 488 562 37,000  Level Chicago Center
05:40AM 40.5706 -89.8367 95° East 491 565 37,000  Level Chicago Center
05:41AM 40.5603 -89.6581 94° East 494 568 37,000  Level Chicago Center
05:42AM 40.5519 -89.5147 94° East 489 563 37,000  Level Chicago Center
05:43AM 40.5394 -89.3019 94° East 488 562 37,000  Level Chicago Center
05:44AM 40.5286 -89.1261 95° East 485 558 37,000  Level Chicago Center
05:45AM 40.5167 -88.9494 95° East 485 558 37,000  Level Chicago Center
05:46AM 40.5056 -88.7808 95° East 485 558 37,000  Level Chicago Center
05:47AM 40.4939 -88.6069 95° East 484 557 37,000  Level Chicago Center
05:48AM 40.4828 -88.4347 95° East 480 552 37,000  Level Chicago Center
05:49AM 40.4714 -88.2586 95° East 486 559 37,000  Level Chicago Center
05:50AM 40.4578 -88.0850 96° East 484 557 37,000  Level Chicago Center
05:51AM 40.4450 -87.9106 95° East 486 559 37,000  Level Chicago Center
05:52AM 40.4325 -87.7369 95° East 483 556 37,000  Level Chicago Center
05:53AM 40.4203 -87.5639 95° East 482 555 37,000  Level Chicago Center
05:54AM 40.4050 -87.3692 96° East 481 554 37,000  Level Chicago Center
05:55AM 40.3903 -87.1931 96° East 481 554 37,000  Level Chicago Center
05:56AM 40.3758 -87.0167 96° East 482 555 37,000  Level Chicago Center
05:57AM 40.3619 -86.8431 96° East 479 551 37,000  Level Chicago Center
05:58AM 40.3469 -86.6700 96° East 475 547 37,000  Level Chicago Center
05:59AM 40.3322 -86.4964 96° East 475 547 37,000  Level Chicago Center
06:00AM 40.3161 -86.3233 97° East 474 545 37,000  Level Chicago Center
06:01AM 40.3006 -86.1492 97° East 474 545 37,000  Level Chicago Center
06:02AM 40.2878 -86.0047 97° East 474 545 37,000  Level Chicago Center
06:03AM 40.2717 -85.8311 97° East 475 547 37,000  Level Chicago Center
06:04AM 40.2550 -85.6583 97° East 475 547 37,000  Level Chicago Center
06:05AM 40.2394 -85.4872 97° East 471 542 37,000  Level Chicago Center
06:06AM 40.2222 -85.3147 97° East 471 542 37,000  Level Indianapolis Center
06:07AM 40.2058 -85.1450 97° East 468 539 37,000  Level Indianapolis Center
06:08AM 40.1889 -84.9750 97° East 470 541 37,000 -60 Level Indianapolis Center
06:09AM 40.1703 -84.7939 98° East 469 540 36,900  Descending Indianapolis Center
06:10AM 40.1517 -84.6242 98° East 469 540 37,000  Climbing Indianapolis Center
06:11AM 40.1358 -84.4533 97° East 470 541 36,900 -60 Descending Indianapolis Center
06:12AM 40.1169 -84.2833 98° East 470 541 36,900  Level Indianapolis Center
06:13AM 40.0989 -84.1153 98° East 463 533 36,900  Level Indianapolis Center
06:14AM 40.0803 -83.9464 98° East 465 535 36,900  Level Indianapolis Center
06:15AM 40.0650 -83.8075 98° East 460 529 36,900  Level Indianapolis Center
06:16AM 40.0456 -83.6383 98° East 463 533 36,900  Level Indianapolis Center
06:17AM 40.0275 -83.4700 98° East 459 528 36,900  Level Indianapolis Center
06:18AM 40.0078 -83.2997 99° East 462 532 36,900  Level Indianapolis Center
06:19AM 39.9878 -83.1314 99° East 461 531 36,900  Level Indianapolis Center
06:20AM 39.9686 -82.9633 98° East 462 532 36,900  Level Indianapolis Center
06:21AM 39.9481 -82.7981 99° East 459 528 37,000  Climbing Indianapolis Center
06:22AM 39.9286 -82.6306 99° East 462 532 36,900 -60 Descending Indianapolis Center
06:23AM 39.9081 -82.4633 99° East 463 533 36,900  Level Indianapolis Center
06:24AM 39.8864 -82.2961 100° East 464 534 36,900  Level Indianapolis Center
06:25AM 39.8658 -82.1264 99° East 469 540 36,900  Level Indianapolis Center
06:26AM 39.8444 -81.9556 99° East 474 545 36,900  Level Indianapolis Center
06:27AM 39.8214 -81.7850 100° East 474 545 36,900  Level Indianapolis Center
06:28AM 39.7997 -81.6153 99° East 472 543 37,000  Climbing Cleveland Center
06:29AM 39.7764 -81.4258 99° East 467 537 37,000  Level Cleveland Center
06:30AM 39.7544 -81.2528 99° East 472 543 37,000  Level Cleveland Center
06:31AM 39.7283 -81.0797 101° East 477 549 37,000  Level Cleveland Center
06:32AM 39.7061 -80.9094 100° East 477 549 37,000  Level Cleveland Center
06:33AM 39.6814 -80.7369 100° East 484 557 37,000  Level Cleveland Center
06:34AM 39.6564 -80.5642 101° East 484 557 37,000  Level Cleveland Center
06:36AM 39.6131 -80.2572 100° East 480 552 37,000 -240 Level Washington Center
06:37AM 39.5861 -80.0858 101° East 485 558 36,300 -1,920 Descending Washington Center
06:38AM 39.5592 -79.9144 101° East 485 558 33,200 -3,120 Descending Washington Center
06:39AM 39.5339 -79.7408 101° East 485 558 30,100 -2,940 Descending Washington Center
06:40AM 39.5064 -79.5669 102° East 492 566 27,500 -1,980 Descending Washington Center
06:41AM 39.4803 -79.4069 102° East 477 549 26,200 -1,740 Descending Washington Center
06:42AM 39.4481 -79.2386 104° East 456 525 24,100 -1,920 Descending Washington Center
06:43AM 39.4189 -79.0947 105° East 427 491 22,400 -1,680 Descending Washington Center
06:44AM 39.3992 -78.9811 103° East 414 476 20,800 -1,920 Descending Washington Center
06:45AM 39.3686 -78.8078 103° East 414 476 18,600 -2,220 Descending Washington Center
06:46AM 39.3431 -78.6697 103° East 402 463 16,500 -2,040 Descending Washington Center
06:47AM 39.3192 -78.5372 103° East 396 456 14,600 -1,920 Descending Washington Center
06:48AM 39.2953 -78.4103 104° East 378 435 12,700 -1,740 Descending Washington Center
06:49AM 39.2519 -78.2986 117° Southeast 355 409 11,100 -1,140 Descending Washington Center
06:50AM 39.2039 -78.2058 124° Southeast 332 382 10,500 -1,020 Descending Washington Center
06:51AM 39.1558 -78.1183 125° Southeast 314 361 9,100 -1,500 Descending Washington Center
06:52AM 39.1094 -78.0339 125° Southeast 297 342 7,500 -1,140 Descending Washington Center
06:53AM 39.0653 -77.9494 124° Southeast 292 336 6,900 -480 Descending Washington Center
06:54AM 39.0353 -77.8925 124° Southeast 280 322 6,600 -480 Descending Washington Center
06:55AM 38.9931 -77.8111 124° Southeast 234 269 6,000 -360 Descending Washington Center
06:56AM 38.9650 -77.7381 116° Southeast 227 261 6,000  Level Washington Center
06:58AM 39.0000 -77.5833 74° East 253 291 6,000  Level Potomac TRACON
06:59AM 39.0667 -77.5667 11° North 232 267 6,000  Level Potomac TRACON
07:00AM 39.1167 -77.5667 360° North 210 242 6,000  Level Potomac TRACON
07:01AM 39.1833 -77.5833 349° North 204 235 6,000  Level Potomac TRACON
07:02AM 39.2333 -77.5833 360° North 205 236 6,000  Level Potomac TRACON
07:03AM 39.2833 -77.5833 360° North 204 235 6,000  Level Potomac TRACON
07:04AM 39.3167 -77.5333 49° Northeast 216 249 6,000 -240 Level Potomac TRACON
07:05AM 39.2833 -77.4667 123° Southeast 186 214 5,600 -540 Descending Potomac TRACON
07:06AM 39.2500 -77.4500 159° South 168 193 5,000 -420 Descending Potomac TRACON
07:07AM 39.2000 -77.4500 180° South 162 186 4,900 -480 Descending Potomac TRACON
07:08AM 39.1667 -77.4500 180° South 158 182 4,100 -840 Descending Potomac TRACON